createdAt,value
2018-07-23T00:00:18.595Z,26.67
2018-07-23T00:01:55.051Z,26.66
2018-07-23T00:03:33.340Z,26.73
2018-07-23T00:05:34.714Z,26.79
2018-07-23T00:15:00.357Z,26.74
2018-07-23T00:16:38.835Z,26.29
2018-07-23T00:18:15.499Z,26.19
2018-07-23T00:19:54.974Z,26.11
2018-07-23T00:21:32.019Z,26.09
2018-07-23T00:23:10.472Z,26.09
2018-07-23T00:24:47.116Z,26.06
2018-07-23T00:26:25.384Z,26.10
2018-07-23T00:28:02.717Z,26.16
2018-07-23T00:29:40.499Z,26.18
2018-07-23T00:31:18.623Z,26.22
2018-07-23T00:32:57.394Z,26.15
2018-07-23T00:34:35.060Z,26.17
2018-07-23T00:36:12.561Z,26.11
2018-07-23T00:37:49.822Z,26.06
2018-07-23T00:39:27.492Z,25.96
2018-07-23T00:41:04.744Z,25.81
2018-07-23T00:42:42.458Z,25.67
2018-07-23T00:44:19.587Z,25.67
2018-07-23T00:45:57.035Z,25.70
2018-07-23T00:47:42.762Z,25.77
2018-07-23T00:49:20.227Z,25.82
2018-07-23T00:50:56.760Z,25.89
2018-07-23T00:52:34.423Z,25.89
2018-07-23T00:54:35.118Z,25.96
2018-07-23T00:56:45.519Z,25.88
2018-07-23T00:58:24.234Z,25.96
2018-07-23T01:00:15.072Z,25.99
2018-07-23T01:01:54.660Z,25.92
2018-07-23T01:03:31.346Z,25.79
2018-07-23T01:05:11.445Z,25.75
2018-07-23T01:06:59.710Z,25.71
2018-07-23T01:08:37.691Z,25.73
2018-07-23T01:10:33.260Z,25.71
2018-07-23T01:12:33.741Z,25.57
2018-07-23T01:14:17.272Z,25.48
2018-07-23T01:15:57.852Z,25.37
2018-07-23T01:17:39.656Z,25.37
2018-07-23T01:19:27.906Z,25.36
2018-07-23T01:21:05.010Z,25.31
2018-07-23T01:22:55.225Z,25.25
2018-07-23T01:24:43.652Z,25.18
2018-07-23T01:26:34.259Z,25.14
2018-07-23T01:28:30.556Z,25.16
2018-07-23T01:30:18.726Z,25.04
2018-07-23T01:32:12.421Z,25.05
2018-07-23T01:33:55.934Z,25.08
2018-07-23T01:36:22.285Z,25.07
2018-07-23T01:37:59.694Z,25.07
2018-07-23T01:39:36.046Z,25.04
2018-07-23T01:41:12.771Z,24.99
2018-07-23T01:42:51.996Z,24.90
2018-07-23T01:44:28.400Z,24.85
2018-07-23T01:46:05.197Z,24.77
2018-07-23T01:47:41.637Z,24.75
2018-07-23T01:49:17.914Z,24.84
2018-07-23T01:51:18.540Z,24.80
2018-07-23T01:52:58.019Z,24.83
2018-07-23T01:54:36.364Z,24.87
2018-07-23T01:56:18.863Z,25.00
2018-07-23T01:57:59.270Z,24.88
2018-07-23T01:59:38.549Z,24.96
2018-07-23T02:01:16.438Z,24.95
2018-07-23T02:02:54.688Z,25.04
2018-07-23T02:04:41.212Z,24.92
2018-07-23T02:06:25.144Z,24.77
2018-07-23T02:08:05.137Z,24.80
2018-07-23T02:09:50.281Z,24.91
2018-07-23T02:13:22.210Z,24.98
2018-07-23T02:15:01.222Z,24.86
2018-07-23T02:16:45.130Z,24.89
2018-07-23T02:18:22.389Z,24.88
2018-07-23T02:20:05.142Z,24.79
2018-07-23T02:21:42.382Z,24.74
2018-07-23T02:23:19.951Z,24.74
2018-07-23T02:25:04.762Z,24.64
2018-07-23T02:26:42.487Z,24.57
2018-07-23T02:28:18.846Z,24.58
2018-07-23T02:29:55.384Z,24.52
2018-07-23T02:31:32.304Z,24.49
2018-07-23T02:33:13.687Z,24.36
2018-07-23T02:37:15.331Z,23.96
2018-07-23T02:39:26.858Z,23.58
2018-07-23T02:41:03.168Z,23.40
2018-07-23T02:43:03.988Z,23.31
2018-07-23T02:45:01.037Z,23.08
2018-07-23T02:46:55.273Z,22.80
2018-07-23T02:48:40.457Z,22.43
2018-07-23T02:50:24.159Z,22.21
2018-07-23T02:52:03.344Z,22.02
